Date,TemperatureHighF,TemperatureAvgF,TemperatureLowF,DewpointHighF,DewpointAvgF,DewpointLowF,HumidityHigh,HumidityAvg,HumidityLow,PressureMaxIn,PressureMinIn,WindSpeedMaxMPH,WindSpeedAvgMPH,GustSpeedMaxMPH,PrecipitationSumIn
2013-2-1,66.5,55.1,45.0,49.9,46.2,42.3,94,74,48,30.21,30.09,6,1,9,0.00
2013-2-2,59.4,51.7,48.5,50.1,47.6,44.7,94,86,71,30.28,30.20,9,2,14,0.00
2013-2-3,58.6,51.5,47.7,47.9,44.9,41.6,92,79,61,30.24,30.13,10,2,13,0.00
2013-2-4,56.8,50.0,47.3,49.5,46.5,44.1,94,88,75,30.17,30.05,8,2,12,0.00
2013-2-5,54.6,50.6,47.9,48.6,45.4,41.9,90,82,76,30.14,30.06,16,5,23,0.00
2013-2-6,57.1,49.9,42.3,47.9,44.0,39.3,95,81,56,30.18,30.11,13,3,18,0.00
2013-2-7,53.4,48.9,44.0,47.3,43.6,39.5,94,83,60,30.16,29.98,13,3,18,0.22
2013-2-8,52.4,47.8,42.4,43.4,39.8,30.5,93,75,45,30.01,29.92,13,3,18,0.13
2013-2-9,59.7,50.6,42.2,43.3,33.9,22.5,78,55,27,30.07,29.97,9,1,13,0.00
2013-2-10,60.4,49.9,40.7,44.5,38.9,33.0,91,68,40,30.11,30.00,7,1,12,0.00
2013-2-11,63.7,52.2,42.5,47.2,38.4,26.9,90,64,28,30.22,30.05,12,2,20,0.00
2013-2-12,62.7,51.0,43.3,48.2,44.6,41.1,95,80,49,30.34,30.22,8,1,10,0.00
2013-2-13,62.6,51.1,44.0,50.0,45.8,42.1,95,83,54,30.33,30.20,11,2,16,0.01
2013-2-14,69.8,56.1,45.6,49.4,45.8,43.1,95,71,40,30.23,30.13,6,1,10,0.00
2013-2-15,72.3,59.4,47.6,48.6,43.8,40.5,87,60,33,30.25,30.18,5,1,7,0.00
2013-2-16,68.9,57.2,49.7,49.8,46.8,43.8,90,70,46,30.21,30.04,11,2,17,0.00
2013-2-17,61.6,52.8,46.6,49.5,45.6,41.8,92,78,55,30.05,29.96,12,3,17,0.00
2013-2-18,52.2,49.2,47.5,45.6,42.1,37.6,90,77,66,30.04,29.95,13,6,21,0.00
2013-2-19,49.0,46.2,42.7,45.4,39.5,33.4,91,78,63,29.96,29.74,17,5,26,0.43
2013-2-20,56.7,48.6,39.8,43.6,38.9,33.8,90,70,49,30.05,29.83,14,2,17,0.00
2013-2-21,57.4,50.2,44.3,44.2,39.2,32.4,86,67,40,30.16,30.04,10,3,16,0.00
2013-2-22,60.6,50.6,42.7,46.8,43.2,37.0,95,77,44,30.24,30.15,15,3,23,0.00
2013-2-23,56.7,51.8,47.4,48.4,40.1,32.1,93,66,44,30.25,30.15,16,5,21,0.01
2013-2-24,61.5,52.8,48.1,44.4,32.9,22.8,87,49,26,30.25,30.15,13,4,18,0.00
2013-2-25,59.8,51.9,45.0,48.2,44.5,41.2,93,76,59,30.26,30.16,9,2,14,0.00
2013-2-26,62.7,52.2,44.0,44.6,37.5,25.0,87,62,25,30.20,30.12,11,2,16,0.00
2013-2-27,66.5,53.2,43.7,49.0,44.3,36.7,92,74,37,30.35,30.19,11,2,20,0.00
2013-2-28,63.4,54.3,49.1,53.0,49.6,46.8,94,85,68,30.43,30.35,12,3,17,0.00